Portada
METAR-TAF:

METAR-TAF

Aeroports :

Price County Airport

Phillips, Wisconsin, Estats Units d'Amèrica

latitud: 45-42N, longitud: 090-24W, altitud: 449 m

Observació

L'informe es va fer fa 22 minuts, a les 03:35 UTC
Vent 3 kt del Sud-Oest
Temperatura 20°C
Humitat 100%
Pressió 1012 hPa
Visibilitat: 16.1 km
Cel ennuvolat a una alçada de 400 ft
Cel ennuvolat a una alçada de 9500 ft
Cel cobert a una alçada de 12000 ft

METAR: KPBH 180335Z AUTO 23003KT 10SM BKN004 BKN095 OVC120 20/20 A2988 RMK AO2 T02000200

Hora: 22:57 (03:57 UTC)


TAF: manca

Observacions i pronòstics meteorològics de més de 4000 aeroports (METAR i TAF).

Les estacions disponibles són els punts grocs i vermells al mapa.

Posi el ratolí al punt desitjat per veure el nom de l'estació.

Feu clic per veure les observacions i els pronòstics meteorològics.

Per canviar el mapa: feu clic els botons verds amb una creu de color negre per apropar; al botó verd amb un guió per allunyar la imatge; o en les fletxes verdes per a mapes adjacents.


METAR-TAF: